sensor_id;sensor_type;location;lat;lon;timestamp;pressure;altitude;pressure_sealevel;temperature;humidity
23616;BME280;11985;49.404;7.734;2024-01-25T00:02:03;98505.50;;;7.38;100.00
23616;BME280;11985;49.404;7.734;2024-01-25T00:07:07;98490.72;;;7.37;100.00
23616;BME280;11985;49.404;7.734;2024-01-25T00:12:11;98487.44;;;7.35;100.00
23616;BME280;11985;49.404;7.734;2024-01-25T00:17:12;98489.09;;;7.36;100.00
23616;BME280;11985;49.404;7.734;2024-01-25T00:22:15;98484.63;;;7.29;100.00
23616;BME280;11985;49.404;7.734;2024-01-25T00:27:18;98494.94;;;7.30;100.00
23616;BME280;11985;49.404;7.734;2024-01-25T00:32:20;98497.56;;;7.30;100.00
23616;BME280;11985;49.404;7.734;2024-01-25T00:37:22;98487.09;;;7.30;100.00
23616;BME280;11985;49.404;7.734;2024-01-25T00:42:26;98483.13;;;7.26;100.00
23616;BME280;11985;49.404;7.734;2024-01-25T00:47:29;98492.28;;;7.22;100.00
23616;BME280;11985;49.404;7.734;2024-01-25T00:52:31;98488.97;;;7.20;100.00
23616;BME280;11985;49.404;7.734;2024-01-25T00:57:35;98484.09;;;7.25;100.00
23616;BME280;11985;49.404;7.734;2024-01-25T01:02:42;98489.34;;;7.25;100.00
23616;BME280;11985;49.404;7.734;2024-01-25T01:07:45;98483.75;;;7.20;100.00
23616;BME280;11985;49.404;7.734;2024-01-25T01:12:48;98473.78;;;7.24;100.00
23616;BME280;11985;49.404;7.734;2024-01-25T01:17:49;98477.38;;;7.23;100.00
23616;BME280;11985;49.404;7.734;2024-01-25T01:22:51;98477.16;;;7.16;100.00
23616;BME280;11985;49.404;7.734;2024-01-25T01:27:55;98469.09;;;7.09;100.00
23616;BME280;11985;49.404;7.734;2024-01-25T01:32:56;98471.50;;;7.03;100.00
23616;BME280;11985;49.404;7.734;2024-01-25T01:37:58;98471.84;;;7.00;100.00
23616;BME280;11985;49.404;7.734;2024-01-25T01:43:01;98474.59;;;6.98;100.00
23616;BME280;11985;49.404;7.734;2024-01-25T01:48:04;98489.81;;;6.95;100.00
23616;BME280;11985;49.404;7.734;2024-01-25T01:53:06;98486.56;;;7.01;100.00
23616;BME280;11985;49.404;7.734;2024-01-25T01:58:10;98491.94;;;6.99;100.00
23616;BME280;11985;49.404;7.734;2024-01-25T02:03:11;98490.91;;;6.92;100.00
23616;BME280;11985;49.404;7.734;2024-01-25T02:08:14;98500.56;;;6.92;100.00
23616;BME280;11985;49.404;7.734;2024-01-25T02:13:17;98502.81;;;6.86;100.00
23616;BME280;11985;49.404;7.734;2024-01-25T02:18:19;98510.03;;;6.84;100.00
23616;BME280;11985;49.404;7.734;2024-01-25T02:23:22;98495.88;;;6.77;100.00
23616;BME280;11985;49.404;7.734;2024-01-25T02:28:23;98492.91;;;6.72;100.00
23616;BME280;11985;49.404;7.734;2024-01-25T02:33:25;98501.66;;;6.63;100.00
23616;BME280;11985;49.404;7.734;2024-01-25T02:38:28;98505.84;;;6.56;100.00
23616;BME280;11985;49.404;7.734;2024-01-25T02:43:30;98502.16;;;6.49;100.00
23616;BME280;11985;49.404;7.734;2024-01-25T02:48:31;98514.75;;;6.45;100.00
23616;BME280;11985;49.404;7.734;2024-01-25T02:53:34;98502.47;;;6.46;100.00
23616;BME280;11985;49.404;7.734;2024-01-25T02:58:36;98493.66;;;6.47;100.00
23616;BME280;11985;49.404;7.734;2024-01-25T03:03:37;98496.28;;;6.47;100.00
23616;BME280;11985;49.404;7.734;2024-01-25T03:08:40;98496.31;;;6.55;100.00
23616;BME280;11985;49.404;7.734;2024-01-25T03:13:42;98507.56;;;6.47;100.00
23616;BME280;11985;49.404;7.734;2024-01-25T03:18:43;98501.50;;;6.47;100.00
23616;BME280;11985;49.404;7.734;2024-01-25T03:23:47;98494.63;;;6.46;100.00
23616;BME280;11985;49.404;7.734;2024-01-25T03:28:48;98499.38;;;6.32;100.00
23616;BME280;11985;49.404;7.734;2024-01-25T03:33:50;98496.97;;;6.21;100.00
23616;BME280;11985;49.404;7.734;2024-01-25T03:38:53;98499.75;;;6.20;100.00
23616;BME280;11985;49.404;7.734;2024-01-25T03:43:55;98493.72;;;6.19;100.00
23616;BME280;11985;49.404;7.734;2024-01-25T03:48:56;98505.38;;;6.25;100.00
23616;BME280;11985;49.404;7.734;2024-01-25T03:53:59;98505.22;;;6.26;100.00
23616;BME280;11985;49.404;7.734;2024-01-25T03:59:01;98512.69;;;6.21;100.00
23616;BME280;11985;49.404;7.734;2024-01-25T04:04:03;98505.16;;;6.18;100.00
23616;BME280;11985;49.404;7.734;2024-01-25T04:09:07;98522.47;;;6.19;100.00
23616;BME280;11985;49.404;7.734;2024-01-25T04:14:08;98513.50;;;6.22;100.00
23616;BME280;11985;49.404;7.734;2024-01-25T04:19:10;98530.69;;;6.06;100.00
23616;BME280;11985;49.404;7.734;2024-01-25T04:24:14;98538.03;;;5.93;100.00
23616;BME280;11985;49.404;7.734;2024-01-25T04:29:16;98550.03;;;5.76;100.00
23616;BME280;11985;49.404;7.734;2024-01-25T04:34:17;98541.41;;;5.66;100.00
23616;BME280;11985;49.404;7.734;2024-01-25T04:39:20;98547.09;;;5.62;100.00
23616;BME280;11985;49.404;7.734;2024-01-25T04:44:22;98551.38;;;5.53;100.00
23616;BME280;11985;49.404;7.734;2024-01-25T04:49:23;98560.03;;;5.44;100.00
23616;BME280;11985;49.404;7.734;2024-01-25T04:54:26;98569.72;;;5.34;100.00
23616;BME280;11985;49.404;7.734;2024-01-25T04:59:28;98569.00;;;5.32;100.00
23616;BME280;11985;49.404;7.734;2024-01-25T05:04:31;98575.19;;;5.40;100.00
23616;BME280;11985;49.404;7.734;2024-01-25T05:09:37;98577.00;;;5.40;100.00
23616;BME280;11985;49.404;7.734;2024-01-25T05:14:38;98588.94;;;5.33;100.00
23616;BME280;11985;49.404;7.734;2024-01-25T05:19:40;98593.09;;;5.25;100.00
23616;BME280;11985;49.404;7.734;2024-01-25T05:24:43;98591.31;;;5.16;100.00
23616;BME280;11985;49.404;7.734;2024-01-25T05:29:46;98602.44;;;4.99;100.00
23616;BME280;11985;49.404;7.734;2024-01-25T05:34:48;98607.00;;;4.78;100.00
23616;BME280;11985;49.404;7.734;2024-01-25T05:39:51;98621.16;;;4.85;100.00
23616;BME280;11985;49.404;7.734;2024-01-25T05:44:52;98616.75;;;4.85;100.00
23616;BME280;11985;49.404;7.734;2024-01-25T05:49:54;98629.94;;;4.84;100.00
23616;BME280;11985;49.404;7.734;2024-01-25T05:54:57;98620.03;;;4.97;100.00
23616;BME280;11985;49.404;7.734;2024-01-25T05:59:59;98633.22;;;5.05;100.00
23616;BME280;11985;49.404;7.734;2024-01-25T06:05:00;98633.50;;;5.02;100.00
23616;BME280;11985;49.404;7.734;2024-01-25T06:10:04;98642.88;;;4.95;100.00
23616;BME280;11985;49.404;7.734;2024-01-25T06:15:07;98625.25;;;4.78;100.00
23616;BME280;11985;49.404;7.734;2024-01-25T06:20:09;98633.47;;;4.63;100.00
23616;BME280;11985;49.404;7.734;2024-01-25T06:25:13;98626.59;;;4.62;100.00
23616;BME280;11985;49.404;7.734;2024-01-25T06:30:15;98621.22;;;4.54;100.00
23616;BME280;11985;49.404;7.734;2024-01-25T06:35:16;98628.19;;;4.34;100.00
23616;BME280;11985;49.404;7.734;2024-01-25T06:40:19;98627.91;;;4.28;100.00
23616;BME280;11985;49.404;7.734;2024-01-25T06:45:21;98617.97;;;4.21;100.00
23616;BME280;11985;49.404;7.734;2024-01-25T06:50:22;98622.91;;;4.15;100.00
23616;BME280;11985;49.404;7.734;2024-01-25T06:55:26;98620.38;;;4.04;100.00
23616;BME280;11985;49.404;7.734;2024-01-25T07:00:27;98623.06;;;3.92;100.00
23616;BME280;11985;49.404;7.734;2024-01-25T07:05:29;98625.22;;;3.78;100.00
23616;BME280;11985;49.404;7.734;2024-01-25T07:10:35;98631.44;;;3.65;100.00
23616;BME280;11985;49.404;7.734;2024-01-25T07:15:36;98637.38;;;3.67;100.00
23616;BME280;11985;49.404;7.734;2024-01-25T07:20:38;98637.59;;;3.64;100.00
23616;BME280;11985;49.404;7.734;2024-01-25T07:25:41;98629.34;;;3.59;100.00
23616;BME280;11985;49.404;7.734;2024-01-25T07:30:42;98624.34;;;3.47;100.00
23616;BME280;11985;49.404;7.734;2024-01-25T07:35:44;98624.66;;;3.53;100.00
23616;BME280;11985;49.404;7.734;2024-01-25T07:40:48;98614.75;;;3.68;100.00
23616;BME280;11985;49.404;7.734;2024-01-25T07:45:49;98614.28;;;3.84;100.00
23616;BME280;11985;49.404;7.734;2024-01-25T07:50:51;98615.69;;;3.97;100.00
23616;BME280;11985;49.404;7.734;2024-01-25T07:55:54;98623.69;;;4.06;100.00
23616;BME280;11985;49.404;7.734;2024-01-25T08:00:55;98634.84;;;4.17;100.00
23616;BME280;11985;49.404;7.734;2024-01-25T08:05:57;98625.78;;;4.21;100.00
23616;BME280;11985;49.404;7.734;2024-01-25T08:11:00;98619.66;;;4.32;100.00
23616;BME280;11985;49.404;7.734;2024-01-25T08:16:02;98619.88;;;4.50;100.00
23616;BME280;11985;49.404;7.734;2024-01-25T08:21:04;98624.97;;;4.61;100.00
23616;BME280;11985;49.404;7.734;2024-01-25T08:26:07;98630.47;;;4.68;100.00
23616;BME280;11985;49.404;7.734;2024-01-25T08:31:10;98636.22;;;4.71;100.00
23616;BME280;11985;49.404;7.734;2024-01-25T08:36:11;98632.38;;;4.75;100.00
23616;BME280;11985;49.404;7.734;2024-01-25T08:41:14;98640.91;;;4.87;100.00
23616;BME280;11985;49.404;7.734;2024-01-25T08:46:16;98651.38;;;4.97;100.00
23616;BME280;11985;49.404;7.734;2024-01-25T08:51:18;98651.91;;;5.10;100.00
23616;BME280;11985;49.404;7.734;2024-01-25T08:56:21;98637.78;;;5.22;100.00
23616;BME280;11985;49.404;7.734;2024-01-25T09:01:22;98645.59;;;5.42;100.00
23616;BME280;11985;49.404;7.734;2024-01-25T09:06:24;98647.78;;;5.56;100.00
23616;BME280;11985;49.404;7.734;2024-01-25T09:11:27;98643.66;;;5.63;100.00
23616;BME280;11985;49.404;7.734;2024-01-25T09:16:29;98644.47;;;5.64;100.00
23616;BME280;11985;49.404;7.734;2024-01-25T09:21:30;98643.47;;;5.74;100.00
23616;BME280;11985;49.404;7.734;2024-01-25T09:26:33;98643.31;;;5.86;100.00
23616;BME280;11985;49.404;7.734;2024-01-25T09:31:35;98646.75;;;5.96;100.00
23616;BME280;11985;49.404;7.734;2024-01-25T09:36:37;98639.72;;;6.06;100.00
23616;BME280;11985;49.404;7.734;2024-01-25T09:41:40;98643.22;;;6.24;100.00
23616;BME280;11985;49.404;7.734;2024-01-25T09:46:42;98647.25;;;6.46;100.00
23616;BME280;11985;49.404;7.734;2024-01-25T09:51:45;98642.56;;;6.50;100.00
23616;BME280;11985;49.404;7.734;2024-01-25T09:56:51;98647.66;;;6.69;100.00
23616;BME280;11985;49.404;7.734;2024-01-25T10:01:56;98640.19;;;6.74;100.00
23616;BME280;11985;49.404;7.734;2024-01-25T10:06:58;98639.69;;;6.88;100.00
23616;BME280;11985;49.404;7.734;2024-01-25T10:12:01;98641.78;;;7.03;100.00
23616;BME280;11985;49.404;7.734;2024-01-25T10:17:03;98636.84;;;7.18;100.00
23616;BME280;11985;49.404;7.734;2024-01-25T10:22:06;98627.94;;;7.28;100.00
23616;BME280;11985;49.404;7.734;2024-01-25T10:27:11;98636.53;;;7.38;100.00
23616;BME280;11985;49.404;7.734;2024-01-25T10:32:13;98634.34;;;7.52;100.00
23616;BME280;11985;49.404;7.734;2024-01-25T10:37:15;98631.84;;;7.68;100.00
23616;BME280;11985;49.404;7.734;2024-01-25T10:42:19;98643.09;;;7.86;100.00
23616;BME280;11985;49.404;7.734;2024-01-25T10:47:20;98639.09;;;8.00;100.00
23616;BME280;11985;49.404;7.734;2024-01-25T10:52:23;98640.91;;;8.08;100.00
23616;BME280;11985;49.404;7.734;2024-01-25T10:57:26;98637.00;;;8.12;100.00
23616;BME280;11985;49.404;7.734;2024-01-25T11:02:36;98643.16;;;8.29;100.00
23616;BME280;11985;49.404;7.734;2024-01-25T11:07:42;98656.59;;;8.52;100.00
23616;BME280;11985;49.404;7.734;2024-01-25T11:12:55;98627.34;;;8.55;100.00
23616;BME280;11985;49.404;7.734;2024-01-25T11:17:57;98634.53;;;8.36;100.00
23616;BME280;11985;49.404;7.734;2024-01-25T11:23:01;98630.16;;;8.19;100.00
23616;BME280;11985;49.404;7.734;2024-01-25T11:28:05;98612.09;;;8.16;100.00
23616;BME280;11985;49.404;7.734;2024-01-25T11:33:07;98604.81;;;8.02;100.00
23616;BME280;11985;49.404;7.734;2024-01-25T11:38:09;98603.94;;;7.93;100.00
23616;BME280;11985;49.404;7.734;2024-01-25T11:43:12;98606.72;;;7.91;100.00
23616;BME280;11985;49.404;7.734;2024-01-25T11:48:14;98602.13;;;7.93;100.00
23616;BME280;11985;49.404;7.734;2024-01-25T11:53:16;98584.38;;;7.79;100.00
23616;BME280;11985;49.404;7.734;2024-01-25T11:58:19;98578.78;;;7.82;100.00
23616;BME280;11985;49.404;7.734;2024-01-25T12:03:20;98574.25;;;7.84;100.00
23616;BME280;11985;49.404;7.734;2024-01-25T12:08:22;98582.31;;;7.91;100.00
23616;BME280;11985;49.404;7.734;2024-01-25T12:13:25;98576.66;;;8.12;100.00
23616;BME280;11985;49.404;7.734;2024-01-25T12:18:27;98559.56;;;8.42;100.00
23616;BME280;11985;49.404;7.734;2024-01-25T12:23:32;98554.69;;;8.55;100.00
23616;BME280;11985;49.404;7.734;2024-01-25T12:28:36;98546.16;;;8.69;100.00
23616;BME280;11985;49.404;7.734;2024-01-25T12:33:38;98532.19;;;8.69;100.00
23616;BME280;11985;49.404;7.734;2024-01-25T12:38:39;98522.03;;;8.74;100.00
23616;BME280;11985;49.404;7.734;2024-01-25T12:43:43;98527.63;;;8.87;100.00
23616;BME280;11985;49.404;7.734;2024-01-25T12:48:44;98498.38;;;8.66;100.00
23616;BME280;11985;49.404;7.734;2024-01-25T12:53:46;98496.09;;;8.71;100.00
23616;BME280;11985;49.404;7.734;2024-01-25T12:58:49;98507.59;;;8.94;100.00
23616;BME280;11985;49.404;7.734;2024-01-25T13:03:51;98509.06;;;8.81;100.00
23616;BME280;11985;49.404;7.734;2024-01-25T13:08:53;98501.03;;;8.74;100.00
23616;BME280;11985;49.404;7.734;2024-01-25T13:13:55;98503.97;;;8.95;100.00
23616;BME280;11985;49.404;7.734;2024-01-25T13:18:57;98498.88;;;9.02;100.00
23616;BME280;11985;49.404;7.734;2024-01-25T13:23:59;98486.22;;;9.14;100.00
23616;BME280;11985;49.404;7.734;2024-01-25T13:29:05;98485.22;;;9.23;100.00
23616;BME280;11985;49.404;7.734;2024-01-25T13:34:07;98482.94;;;9.12;100.00
23616;BME280;11985;49.404;7.734;2024-01-25T13:39:08;98475.69;;;9.14;100.00
23616;BME280;11985;49.404;7.734;2024-01-25T13:44:13;98472.59;;;9.02;100.00
23616;BME280;11985;49.404;7.734;2024-01-25T13:49:15;98476.88;;;8.95;100.00
23616;BME280;11985;49.404;7.734;2024-01-25T13:54:16;98462.09;;;8.86;100.00
23616;BME280;11985;49.404;7.734;2024-01-25T13:59:19;98470.16;;;8.76;100.00
23616;BME280;11985;49.404;7.734;2024-01-25T14:04:21;98464.09;;;8.67;100.00
23616;BME280;11985;49.404;7.734;2024-01-25T14:09:23;98461.44;;;8.59;100.00
23616;BME280;11985;49.404;7.734;2024-01-25T14:14:26;98464.72;;;8.45;100.00
23616;BME280;11985;49.404;7.734;2024-01-25T14:19:27;98461.13;;;8.46;100.00
23616;BME280;11985;49.404;7.734;2024-01-25T14:24:29;98453.41;;;8.44;100.00
23616;BME280;11985;49.404;7.734;2024-01-25T14:29:32;98446.16;;;8.55;100.00
23616;BME280;11985;49.404;7.734;2024-01-25T14:34:34;98456.34;;;8.41;100.00
23616;BME280;11985;49.404;7.734;2024-01-25T14:39:36;98449.41;;;8.32;100.00
23616;BME280;11985;49.404;7.734;2024-01-25T14:44:42;98439.88;;;8.07;100.00
23616;BME280;11985;49.404;7.734;2024-01-25T14:49:44;98449.03;;;8.03;100.00
23616;BME280;11985;49.404;7.734;2024-01-25T14:54:46;98441.81;;;7.88;100.00
23616;BME280;11985;49.404;7.734;2024-01-25T14:59:48;98444.75;;;7.93;100.00
23616;BME280;11985;49.404;7.734;2024-01-25T15:04:50;98452.94;;;7.99;100.00
23616;BME280;11985;49.404;7.734;2024-01-25T15:09:52;98449.50;;;7.90;100.00
23616;BME280;11985;49.404;7.734;2024-01-25T15:14:55;98442.56;;;7.81;100.00
23616;BME280;11985;49.404;7.734;2024-01-25T15:19:56;98446.66;;;7.75;100.00
23616;BME280;11985;49.404;7.734;2024-01-25T15:24:58;98434.53;;;7.74;100.00
23616;BME280;11985;49.404;7.734;2024-01-25T15:30:01;98425.41;;;7.94;100.00
23616;BME280;11985;49.404;7.734;2024-01-25T15:35:03;98413.28;;;8.10;100.00
23616;BME280;11985;49.404;7.734;2024-01-25T15:40:06;98416.59;;;8.12;100.00
23616;BME280;11985;49.404;7.734;2024-01-25T15:45:12;98428.03;;;8.03;100.00
23616;BME280;11985;49.404;7.734;2024-01-25T15:50:14;98410.50;;;7.95;100.00
23616;BME280;11985;49.404;7.734;2024-01-25T15:55:16;98415.06;;;7.85;100.00
23616;BME280;11985;49.404;7.734;2024-01-25T16:00:19;98404.34;;;7.70;100.00
23616;BME280;11985;49.404;7.734;2024-01-25T16:05:21;98412.50;;;7.59;100.00
23616;BME280;11985;49.404;7.734;2024-01-25T16:10:23;98404.16;;;7.55;100.00
23616;BME280;11985;49.404;7.734;2024-01-25T16:15:27;98404.94;;;7.48;100.00
23616;BME280;11985;49.404;7.734;2024-01-25T16:20:29;98400.97;;;7.44;100.00
23616;BME280;11985;49.404;7.734;2024-01-25T16:25:30;98396.06;;;7.40;100.00
23616;BME280;11985;49.404;7.734;2024-01-25T16:30:33;98399.03;;;7.46;100.00
23616;BME280;11985;49.404;7.734;2024-01-25T16:35:35;98398.06;;;7.55;100.00
23616;BME280;11985;49.404;7.734;2024-01-25T16:40:37;98401.84;;;7.60;100.00
23616;BME280;11985;49.404;7.734;2024-01-25T16:45:40;98400.19;;;7.51;100.00
23616;BME280;11985;49.404;7.734;2024-01-25T16:50:41;98387.22;;;7.41;100.00
23616;BME280;11985;49.404;7.734;2024-01-25T16:55:43;98392.75;;;7.30;100.00
23616;BME280;11985;49.404;7.734;2024-01-25T17:00:47;98392.91;;;7.29;100.00
23616;BME280;11985;49.404;7.734;2024-01-25T17:05:51;98396.16;;;7.23;100.00
23616;BME280;11985;49.404;7.734;2024-01-25T17:10:53;98393.00;;;7.19;100.00
23616;BME280;11985;49.404;7.734;2024-01-25T17:15:56;98395.94;;;7.16;100.00
23616;BME280;11985;49.404;7.734;2024-01-25T17:20:57;98390.66;;;7.08;100.00
23616;BME280;11985;49.404;7.734;2024-01-25T17:25:59;98395.63;;;7.11;100.00
23616;BME280;11985;49.404;7.734;2024-01-25T17:31:02;98399.59;;;7.23;100.00
23616;BME280;11985;49.404;7.734;2024-01-25T17:36:06;98389.81;;;7.33;100.00
23616;BME280;11985;49.404;7.734;2024-01-25T17:41:08;98395.88;;;7.34;100.00
23616;BME280;11985;49.404;7.734;2024-01-25T17:46:11;98384.56;;;7.33;100.00
23616;BME280;11985;49.404;7.734;2024-01-25T17:51:13;98378.97;;;7.28;100.00
23616;BME280;11985;49.404;7.734;2024-01-25T17:56:16;98395.16;;;7.24;100.00
23616;BME280;11985;49.404;7.734;2024-01-25T18:01:19;98383.88;;;7.23;100.00
23616;BME280;11985;49.404;7.734;2024-01-25T18:06:20;98388.41;;;7.13;100.00
23616;BME280;11985;49.404;7.734;2024-01-25T18:11:22;98389.03;;;7.07;100.00
23616;BME280;11985;49.404;7.734;2024-01-25T18:16:25;98386.06;;;7.02;100.00
23616;BME280;11985;49.404;7.734;2024-01-25T18:21:26;98386.34;;;6.99;100.00
23616;BME280;11985;49.404;7.734;2024-01-25T18:26:30;98368.06;;;7.07;100.00
23616;BME280;11985;49.404;7.734;2024-01-25T18:31:33;98358.31;;;7.17;100.00
23616;BME280;11985;49.404;7.734;2024-01-25T18:36:34;98361.75;;;7.26;100.00
23616;BME280;11985;49.404;7.734;2024-01-25T18:41:37;98360.13;;;7.25;100.00
23616;BME280;11985;49.404;7.734;2024-01-25T18:46:41;98362.09;;;7.23;100.00
23616;BME280;11985;49.404;7.734;2024-01-25T18:51:42;98363.03;;;7.22;100.00
23616;BME280;11985;49.404;7.734;2024-01-25T18:56:44;98373.41;;;7.23;100.00
23616;BME280;11985;49.404;7.734;2024-01-25T19:01:48;98366.50;;;7.22;100.00
23616;BME280;11985;49.404;7.734;2024-01-25T19:06:52;98370.25;;;7.20;100.00
23616;BME280;11985;49.404;7.734;2024-01-25T19:11:54;98366.97;;;7.18;100.00
23616;BME280;11985;49.404;7.734;2024-01-25T19:16:57;98369.09;;;7.14;100.00
23616;BME280;11985;49.404;7.734;2024-01-25T19:22:00;98377.94;;;7.13;100.00
23616;BME280;11985;49.404;7.734;2024-01-25T19:27:02;98381.19;;;7.15;100.00
23616;BME280;11985;49.404;7.734;2024-01-25T19:32:06;98375.03;;;7.32;100.00
23616;BME280;11985;49.404;7.734;2024-01-25T19:37:07;98374.47;;;7.47;100.00
23616;BME280;11985;49.404;7.734;2024-01-25T19:42:09;98367.59;;;7.54;100.00
23616;BME280;11985;49.404;7.734;2024-01-25T19:47:12;98353.84;;;7.52;100.00
23616;BME280;11985;49.404;7.734;2024-01-25T19:52:13;98356.47;;;7.52;100.00
23616;BME280;11985;49.404;7.734;2024-01-25T19:57:16;98370.56;;;7.51;100.00
23616;BME280;11985;49.404;7.734;2024-01-25T20:02:20;98372.50;;;7.49;100.00
23616;BME280;11985;49.404;7.734;2024-01-25T20:07:22;98381.47;;;7.38;100.00
23616;BME280;11985;49.404;7.734;2024-01-25T20:12:25;98382.31;;;7.38;100.00
23616;BME280;11985;49.404;7.734;2024-01-25T20:17:28;98381.81;;;7.43;100.00
23616;BME280;11985;49.404;7.734;2024-01-25T20:22:31;98376.09;;;7.48;100.00
23616;BME280;11985;49.404;7.734;2024-01-25T20:27:33;98370.22;;;7.54;100.00
23616;BME280;11985;49.404;7.734;2024-01-25T20:32:36;98362.56;;;7.68;100.00
23616;BME280;11985;49.404;7.734;2024-01-25T20:37:38;98362.75;;;7.75;100.00
23616;BME280;11985;49.404;7.734;2024-01-25T20:42:39;98381.91;;;7.67;100.00
23616;BME280;11985;49.404;7.734;2024-01-25T20:47:42;98387.63;;;7.71;100.00
23616;BME280;11985;49.404;7.734;2024-01-25T20:52:44;98380.75;;;7.70;100.00
23616;BME280;11985;49.404;7.734;2024-01-25T20:57:46;98383.22;;;7.72;100.00
23616;BME280;11985;49.404;7.734;2024-01-25T21:02:49;98370.75;;;7.65;100.00
23616;BME280;11985;49.404;7.734;2024-01-25T21:07:53;98363.69;;;7.66;100.00
23616;BME280;11985;49.404;7.734;2024-01-25T21:12:55;98366.00;;;7.61;100.00
23616;BME280;11985;49.404;7.734;2024-01-25T21:17:58;98347.16;;;7.74;100.00
23616;BME280;11985;49.404;7.734;2024-01-25T21:23:00;98353.56;;;7.79;100.00
23616;BME280;11985;49.404;7.734;2024-01-25T21:28:02;98348.00;;;7.82;100.00
23616;BME280;11985;49.404;7.734;2024-01-25T21:33:05;98350.13;;;7.87;100.00
23616;BME280;11985;49.404;7.734;2024-01-25T21:38:07;98348.50;;;7.86;100.00
23616;BME280;11985;49.404;7.734;2024-01-25T21:43:09;98354.41;;;7.80;100.00
23616;BME280;11985;49.404;7.734;2024-01-25T21:48:12;98356.84;;;7.81;100.00
23616;BME280;11985;49.404;7.734;2024-01-25T21:53:13;98348.63;;;7.76;100.00
23616;BME280;11985;49.404;7.734;2024-01-25T21:58:17;98340.13;;;7.74;100.00
23616;BME280;11985;49.404;7.734;2024-01-25T22:03:20;98335.53;;;7.76;100.00
23616;BME280;11985;49.404;7.734;2024-01-25T22:08:22;98341.75;;;7.75;100.00
23616;BME280;11985;49.404;7.734;2024-01-25T22:13:24;98344.56;;;7.74;100.00
23616;BME280;11985;49.404;7.734;2024-01-25T22:18:27;98351.59;;;7.73;100.00
23616;BME280;11985;49.404;7.734;2024-01-25T22:23:29;98351.75;;;7.72;100.00
23616;BME280;11985;49.404;7.734;2024-01-25T22:28:30;98360.13;;;7.75;100.00
23616;BME280;11985;49.404;7.734;2024-01-25T22:33:33;98361.41;;;7.71;100.00
23616;BME280;11985;49.404;7.734;2024-01-25T22:38:36;98366.66;;;7.71;100.00
23616;BME280;11985;49.404;7.734;2024-01-25T22:43:38;98380.91;;;7.68;100.00
23616;BME280;11985;49.404;7.734;2024-01-25T22:48:41;98372.25;;;7.68;100.00
23616;BME280;11985;49.404;7.734;2024-01-25T22:53:42;98374.53;;;7.71;100.00
23616;BME280;11985;49.404;7.734;2024-01-25T22:58:44;98360.28;;;7.74;100.00
23616;BME280;11985;49.404;7.734;2024-01-25T23:03:47;98367.97;;;7.75;100.00
23616;BME280;11985;49.404;7.734;2024-01-25T23:08:48;98366.34;;;7.74;100.00
23616;BME280;11985;49.404;7.734;2024-01-25T23:13:50;98367.00;;;7.76;100.00
23616;BME280;11985;49.404;7.734;2024-01-25T23:18:53;98356.50;;;7.76;100.00
23616;BME280;11985;49.404;7.734;2024-01-25T23:23:54;98350.28;;;7.77;100.00
23616;BME280;11985;49.404;7.734;2024-01-25T23:28:56;98347.81;;;7.76;100.00
23616;BME280;11985;49.404;7.734;2024-01-25T23:33:59;98350.91;;;7.71;100.00
23616;BME280;11985;49.404;7.734;2024-01-25T23:39:02;98339.63;;;7.71;100.00
23616;BME280;11985;49.404;7.734;2024-01-25T23:44:04;98341.25;;;7.72;100.00
23616;BME280;11985;49.404;7.734;2024-01-25T23:49:07;98351.91;;;7.70;100.00
23616;BME280;11985;49.404;7.734;2024-01-25T23:54:10;98355.34;;;7.71;100.00
23616;BME280;11985;49.404;7.734;2024-01-25T23:59:11;98347.34;;;7.72;100.00
